sensor_id;sensor_type;location;lat;lon;timestamp;P1;durP1;ratioP1;P2;durP2;ratioP2
5175;SDS011;2607;50.934;6.934;2022-10-19T00:03:27;15.40;;;10.70;;
5175;SDS011;2607;50.934;6.934;2022-10-19T00:05:53;15.60;;;10.13;;
5175;SDS011;2607;50.934;6.934;2022-10-19T00:08:18;16.60;;;10.77;;
5175;SDS011;2607;50.934;6.934;2022-10-19T00:10:44;16.70;;;11.17;;
5175;SDS011;2607;50.934;6.934;2022-10-19T00:13:09;17.93;;;10.77;;
5175;SDS011;2607;50.934;6.934;2022-10-19T00:15:38;16.70;;;10.70;;
5175;SDS011;2607;50.934;6.934;2022-10-19T00:18:05;20.60;;;10.13;;
5175;SDS011;2607;50.934;6.934;2022-10-19T00:20:31;15.57;;;9.83;;
5175;SDS011;2607;50.934;6.934;2022-10-19T00:22:57;13.63;;;10.80;;
5175;SDS011;2607;50.934;6.934;2022-10-19T00:25:23;14.20;;;9.63;;
5175;SDS011;2607;50.934;6.934;2022-10-19T00:27:48;14.90;;;9.83;;
5175;SDS011;2607;50.934;6.934;2022-10-19T00:30:15;13.20;;;10.27;;
5175;SDS011;2607;50.934;6.934;2022-10-19T00:32:40;14.40;;;9.60;;
5175;SDS011;2607;50.934;6.934;2022-10-19T00:35:06;16.57;;;11.70;;
5175;SDS011;2607;50.934;6.934;2022-10-19T00:37:32;18.83;;;12.30;;
5175;SDS011;2607;50.934;6.934;2022-10-19T00:39:57;16.70;;;10.90;;
5175;SDS011;2607;50.934;6.934;2022-10-19T00:42:23;21.00;;;11.90;;
5175;SDS011;2607;50.934;6.934;2022-10-19T00:47:14;17.90;;;11.23;;
5175;SDS011;2607;50.934;6.934;2022-10-19T00:49:43;17.13;;;12.23;;
5175;SDS011;2607;50.934;6.934;2022-10-19T00:52:12;17.60;;;11.10;;
5175;SDS011;2607;50.934;6.934;2022-10-19T00:54:42;16.60;;;9.93;;
5175;SDS011;2607;50.934;6.934;2022-10-19T00:57:10;23.87;;;10.33;;
5175;SDS011;2607;50.934;6.934;2022-10-19T00:59:36;14.37;;;9.13;;
5175;SDS011;2607;50.934;6.934;2022-10-19T01:02:03;14.50;;;10.10;;
5175;SDS011;2607;50.934;6.934;2022-10-19T01:04:31;20.10;;;10.50;;
5175;SDS011;2607;50.934;6.934;2022-10-19T01:06:59;14.23;;;10.50;;
5175;SDS011;2607;50.934;6.934;2022-10-19T01:09:26;23.13;;;9.03;;
5175;SDS011;2607;50.934;6.934;2022-10-19T01:17:35;13.70;;;9.63;;
5175;SDS011;2607;50.934;6.934;2022-10-19T01:26:02;15.67;;;9.70;;
5175;SDS011;2607;50.934;6.934;2022-10-19T01:31:26;15.33;;;9.63;;
5175;SDS011;2607;50.934;6.934;2022-10-19T01:34:03;12.03;;;8.70;;
5175;SDS011;2607;50.934;6.934;2022-10-19T01:36:42;12.60;;;9.70;;
5175;SDS011;2607;50.934;6.934;2022-10-19T01:39:31;18.77;;;10.10;;
5175;SDS011;2607;50.934;6.934;2022-10-19T01:44:49;11.63;;;9.80;;
5175;SDS011;2607;50.934;6.934;2022-10-19T01:48:09;19.30;;;10.50;;
5175;SDS011;2607;50.934;6.934;2022-10-19T01:52:55;12.77;;;9.30;;
5175;SDS011;2607;50.934;6.934;2022-10-19T01:55:23;14.77;;;9.93;;
5175;SDS011;2607;50.934;6.934;2022-10-19T01:57:54;13.67;;;9.90;;
5175;SDS011;2607;50.934;6.934;2022-10-19T02:00:25;12.60;;;9.57;;
5175;SDS011;2607;50.934;6.934;2022-10-19T02:02:53;10.80;;;8.53;;
5175;SDS011;2607;50.934;6.934;2022-10-19T02:05:21;18.53;;;9.50;;
5175;SDS011;2607;50.934;6.934;2022-10-19T02:07:53;11.60;;;8.53;;
5175;SDS011;2607;50.934;6.934;2022-10-19T02:10:22;12.90;;;8.90;;
5175;SDS011;2607;50.934;6.934;2022-10-19T02:12:49;13.63;;;9.30;;
5175;SDS011;2607;50.934;6.934;2022-10-19T02:15:18;11.80;;;9.30;;
5175;SDS011;2607;50.934;6.934;2022-10-19T02:17:48;14.77;;;9.10;;
5175;SDS011;2607;50.934;6.934;2022-10-19T02:20:17;12.70;;;9.17;;
5175;SDS011;2607;50.934;6.934;2022-10-19T02:22:44;10.80;;;7.90;;
5175;SDS011;2607;50.934;6.934;2022-10-19T02:25:09;10.07;;;7.80;;
5175;SDS011;2607;50.934;6.934;2022-10-19T02:27:36;11.43;;;7.80;;
5175;SDS011;2607;50.934;6.934;2022-10-19T02:30:06;19.50;;;8.67;;
5175;SDS011;2607;50.934;6.934;2022-10-19T02:32:36;12.77;;;8.17;;
5175;SDS011;2607;50.934;6.934;2022-10-19T02:35:02;13.47;;;8.30;;
5175;SDS011;2607;50.934;6.934;2022-10-19T02:37:28;10.00;;;7.90;;
5175;SDS011;2607;50.934;6.934;2022-10-19T02:39:54;13.07;;;8.03;;
5175;SDS011;2607;50.934;6.934;2022-10-19T02:42:37;12.67;;;8.17;;
5175;SDS011;2607;50.934;6.934;2022-10-19T02:45:14;11.30;;;8.10;;
5175;SDS011;2607;50.934;6.934;2022-10-19T02:47:47;12.47;;;8.33;;
5175;SDS011;2607;50.934;6.934;2022-10-19T02:50:16;12.70;;;8.87;;
5175;SDS011;2607;50.934;6.934;2022-10-19T02:52:43;16.60;;;8.47;;
5175;SDS011;2607;50.934;6.934;2022-10-19T02:55:09;12.93;;;8.67;;
5175;SDS011;2607;50.934;6.934;2022-10-19T02:57:35;12.97;;;8.93;;
5175;SDS011;2607;50.934;6.934;2022-10-19T03:00:01;11.73;;;9.03;;
5175;SDS011;2607;50.934;6.934;2022-10-19T03:02:28;17.30;;;9.27;;
5175;SDS011;2607;50.934;6.934;2022-10-19T03:04:53;9.73;;;8.60;;
5175;SDS011;2607;50.934;6.934;2022-10-19T03:07:20;13.60;;;9.43;;
5175;SDS011;2607;50.934;6.934;2022-10-19T03:09:46;14.33;;;9.67;;
5175;SDS011;2607;50.934;6.934;2022-10-19T03:12:12;10.30;;;8.13;;
5175;SDS011;2607;50.934;6.934;2022-10-19T03:14:38;11.50;;;8.10;;
5175;SDS011;2607;50.934;6.934;2022-10-19T03:17:04;9.23;;;7.70;;
5175;SDS011;2607;50.934;6.934;2022-10-19T03:19:30;13.33;;;8.37;;
5175;SDS011;2607;50.934;6.934;2022-10-19T03:21:56;13.80;;;8.20;;
5175;SDS011;2607;50.934;6.934;2022-10-19T03:24:22;15.37;;;9.83;;
5175;SDS011;2607;50.934;6.934;2022-10-19T03:26:48;13.23;;;9.30;;
5175;SDS011;2607;50.934;6.934;2022-10-19T03:29:14;10.00;;;7.83;;
5175;SDS011;2607;50.934;6.934;2022-10-19T03:31:40;10.77;;;7.97;;
5175;SDS011;2607;50.934;6.934;2022-10-19T03:34:05;11.23;;;7.30;;
5175;SDS011;2607;50.934;6.934;2022-10-19T03:36:32;7.97;;;7.17;;
5175;SDS011;2607;50.934;6.934;2022-10-19T03:39:00;11.77;;;8.03;;
5175;SDS011;2607;50.934;6.934;2022-10-19T03:41:29;10.80;;;7.63;;
5175;SDS011;2607;50.934;6.934;2022-10-19T03:43:56;8.20;;;6.90;;
5175;SDS011;2607;50.934;6.934;2022-10-19T03:46:22;8.33;;;7.40;;
5175;SDS011;2607;50.934;6.934;2022-10-19T03:48:48;11.03;;;6.93;;
5175;SDS011;2607;50.934;6.934;2022-10-19T03:51:15;9.33;;;7.20;;
5175;SDS011;2607;50.934;6.934;2022-10-19T03:53:42;9.80;;;7.83;;
5175;SDS011;2607;50.934;6.934;2022-10-19T03:56:12;7.80;;;7.10;;
5175;SDS011;2607;50.934;6.934;2022-10-19T03:58:40;7.60;;;6.90;;
5175;SDS011;2607;50.934;6.934;2022-10-19T04:01:08;10.10;;;8.60;;
5175;SDS011;2607;50.934;6.934;2022-10-19T04:03:35;16.93;;;8.97;;
5175;SDS011;2607;50.934;6.934;2022-10-19T04:06:04;8.77;;;7.90;;
5175;SDS011;2607;50.934;6.934;2022-10-19T04:08:32;9.33;;;7.33;;
5175;SDS011;2607;50.934;6.934;2022-10-19T04:11:02;10.27;;;7.87;;
5175;SDS011;2607;50.934;6.934;2022-10-19T04:13:30;13.87;;;7.60;;
5175;SDS011;2607;50.934;6.934;2022-10-19T04:15:56;10.60;;;7.57;;
5175;SDS011;2607;50.934;6.934;2022-10-19T04:18:22;13.43;;;8.50;;
5175;SDS011;2607;50.934;6.934;2022-10-19T04:20:48;11.90;;;7.63;;
5175;SDS011;2607;50.934;6.934;2022-10-19T04:23:19;9.53;;;7.77;;
5175;SDS011;2607;50.934;6.934;2022-10-19T04:25:44;10.50;;;8.27;;
5175;SDS011;2607;50.934;6.934;2022-10-19T04:28:10;14.67;;;7.90;;
5175;SDS011;2607;50.934;6.934;2022-10-19T04:30:35;13.07;;;7.53;;
5175;SDS011;2607;50.934;6.934;2022-10-19T04:33:01;8.60;;;6.97;;
5175;SDS011;2607;50.934;6.934;2022-10-19T04:35:26;10.93;;;7.73;;
5175;SDS011;2607;50.934;6.934;2022-10-19T04:37:52;9.33;;;8.00;;
5175;SDS011;2607;50.934;6.934;2022-10-19T04:40:17;9.10;;;7.20;;
5175;SDS011;2607;50.934;6.934;2022-10-19T04:42:43;10.40;;;8.20;;
5175;SDS011;2607;50.934;6.934;2022-10-19T04:45:09;12.07;;;8.13;;
5175;SDS011;2607;50.934;6.934;2022-10-19T04:47:34;13.43;;;8.83;;
5175;SDS011;2607;50.934;6.934;2022-10-19T04:50:00;15.17;;;7.93;;
5175;SDS011;2607;50.934;6.934;2022-10-19T04:52:25;7.80;;;6.77;;
5175;SDS011;2607;50.934;6.934;2022-10-19T04:54:51;9.80;;;6.90;;
5175;SDS011;2607;50.934;6.934;2022-10-19T04:57:16;8.73;;;7.20;;
5175;SDS011;2607;50.934;6.934;2022-10-19T04:59:42;14.53;;;7.60;;
5175;SDS011;2607;50.934;6.934;2022-10-19T05:02:07;13.17;;;8.47;;
5175;SDS011;2607;50.934;6.934;2022-10-19T05:04:33;14.40;;;9.70;;
5175;SDS011;2607;50.934;6.934;2022-10-19T05:06:58;19.03;;;9.20;;
5175;SDS011;2607;50.934;6.934;2022-10-19T05:09:24;13.60;;;7.27;;
5175;SDS011;2607;50.934;6.934;2022-10-19T05:11:50;10.17;;;7.37;;
5175;SDS011;2607;50.934;6.934;2022-10-19T05:14:15;14.30;;;9.33;;
5175;SDS011;2607;50.934;6.934;2022-10-19T05:16:41;11.10;;;6.90;;
5175;SDS011;2607;50.934;6.934;2022-10-19T05:19:10;13.20;;;7.70;;
5175;SDS011;2607;50.934;6.934;2022-10-19T05:21:38;10.80;;;7.00;;
5175;SDS011;2607;50.934;6.934;2022-10-19T05:24:03;12.57;;;7.50;;
5175;SDS011;2607;50.934;6.934;2022-10-19T05:26:29;10.37;;;7.73;;
5175;SDS011;2607;50.934;6.934;2022-10-19T05:28:56;11.20;;;8.00;;
5175;SDS011;2607;50.934;6.934;2022-10-19T05:31:26;11.53;;;7.43;;
5175;SDS011;2607;50.934;6.934;2022-10-19T05:33:53;9.73;;;8.00;;
5175;SDS011;2607;50.934;6.934;2022-10-19T05:36:21;9.40;;;8.00;;
5175;SDS011;2607;50.934;6.934;2022-10-19T05:38:59;7.83;;;7.13;;
5175;SDS011;2607;50.934;6.934;2022-10-19T05:41:27;11.40;;;8.03;;
5175;SDS011;2607;50.934;6.934;2022-10-19T05:43:53;8.67;;;7.33;;
5175;SDS011;2607;50.934;6.934;2022-10-19T05:46:21;13.90;;;7.30;;
5175;SDS011;2607;50.934;6.934;2022-10-19T05:48:47;11.63;;;7.53;;
5175;SDS011;2607;50.934;6.934;2022-10-19T05:51:13;7.93;;;7.13;;
5175;SDS011;2607;50.934;6.934;2022-10-19T05:53:41;11.53;;;7.63;;
5175;SDS011;2607;50.934;6.934;2022-10-19T05:56:07;10.73;;;7.70;;
5175;SDS011;2607;50.934;6.934;2022-10-19T05:58:37;12.37;;;7.87;;
5175;SDS011;2607;50.934;6.934;2022-10-19T06:01:02;8.97;;;7.33;;
5175;SDS011;2607;50.934;6.934;2022-10-19T06:03:28;7.83;;;7.13;;
5175;SDS011;2607;50.934;6.934;2022-10-19T06:05:54;12.43;;;7.20;;
5175;SDS011;2607;50.934;6.934;2022-10-19T06:08:20;8.50;;;7.70;;
5175;SDS011;2607;50.934;6.934;2022-10-19T06:10:47;7.20;;;6.50;;
5175;SDS011;2607;50.934;6.934;2022-10-19T06:13:16;7.03;;;6.13;;
5175;SDS011;2607;50.934;6.934;2022-10-19T06:15:43;13.30;;;6.60;;
5175;SDS011;2607;50.934;6.934;2022-10-19T06:18:09;9.53;;;6.70;;
5175;SDS011;2607;50.934;6.934;2022-10-19T06:20:36;9.10;;;6.60;;
5175;SDS011;2607;50.934;6.934;2022-10-19T06:23:03;10.30;;;7.63;;
5175;SDS011;2607;50.934;6.934;2022-10-19T06:25:30;12.07;;;7.90;;
5175;SDS011;2607;50.934;6.934;2022-10-19T06:27:56;8.80;;;7.50;;
5175;SDS011;2607;50.934;6.934;2022-10-19T06:30:22;6.90;;;6.20;;
5175;SDS011;2607;50.934;6.934;2022-10-19T06:32:48;11.77;;;7.30;;
5175;SDS011;2607;50.934;6.934;2022-10-19T06:35:14;10.70;;;7.83;;
5175;SDS011;2607;50.934;6.934;2022-10-19T06:37:40;11.77;;;8.50;;
5175;SDS011;2607;50.934;6.934;2022-10-19T06:40:06;19.63;;;8.90;;
5175;SDS011;2607;50.934;6.934;2022-10-19T06:42:32;13.17;;;8.80;;
5175;SDS011;2607;50.934;6.934;2022-10-19T06:44:58;15.93;;;10.20;;
5175;SDS011;2607;50.934;6.934;2022-10-19T06:47:23;15.83;;;10.37;;
5175;SDS011;2607;50.934;6.934;2022-10-19T06:49:55;12.00;;;10.47;;
5175;SDS011;2607;50.934;6.934;2022-10-19T06:52:21;105.63;;;14.23;;
5175;SDS011;2607;50.934;6.934;2022-10-19T06:54:46;13.10;;;10.33;;
5175;SDS011;2607;50.934;6.934;2022-10-19T06:57:12;16.17;;;10.53;;
5175;SDS011;2607;50.934;6.934;2022-10-19T06:59:37;17.17;;;10.33;;
5175;SDS011;2607;50.934;6.934;2022-10-19T07:02:03;15.50;;;8.87;;
5175;SDS011;2607;50.934;6.934;2022-10-19T07:04:29;12.10;;;10.03;;
5175;SDS011;2607;50.934;6.934;2022-10-19T07:06:54;16.83;;;10.20;;
5175;SDS011;2607;50.934;6.934;2022-10-19T07:09:20;12.77;;;9.60;;
5175;SDS011;2607;50.934;6.934;2022-10-19T07:11:46;16.90;;;10.27;;
5175;SDS011;2607;50.934;6.934;2022-10-19T07:14:12;14.83;;;9.10;;
5175;SDS011;2607;50.934;6.934;2022-10-19T07:16:38;13.87;;;9.00;;
5175;SDS011;2607;50.934;6.934;2022-10-19T07:19:04;15.63;;;10.13;;
5175;SDS011;2607;50.934;6.934;2022-10-19T07:21:29;16.63;;;8.97;;
5175;SDS011;2607;50.934;6.934;2022-10-19T07:23:55;18.50;;;9.03;;
5175;SDS011;2607;50.934;6.934;2022-10-19T07:26:21;14.93;;;9.00;;
5175;SDS011;2607;50.934;6.934;2022-10-19T07:28:51;10.93;;;8.60;;
5175;SDS011;2607;50.934;6.934;2022-10-19T07:31:19;15.87;;;8.57;;
5175;SDS011;2607;50.934;6.934;2022-10-19T07:33:46;15.53;;;7.70;;
5175;SDS011;2607;50.934;6.934;2022-10-19T07:36:19;13.97;;;8.30;;
5175;SDS011;2607;50.934;6.934;2022-10-19T07:38:45;11.97;;;7.50;;
5175;SDS011;2607;50.934;6.934;2022-10-19T07:41:11;12.67;;;7.30;;
5175;SDS011;2607;50.934;6.934;2022-10-19T07:43:39;10.13;;;7.23;;
5175;SDS011;2607;50.934;6.934;2022-10-19T07:46:06;7.70;;;6.70;;
5175;SDS011;2607;50.934;6.934;2022-10-19T07:48:34;10.57;;;6.70;;
5175;SDS011;2607;50.934;6.934;2022-10-19T07:51:00;16.17;;;6.50;;
5175;SDS011;2607;50.934;6.934;2022-10-19T07:53:27;11.20;;;6.83;;
5175;SDS011;2607;50.934;6.934;2022-10-19T07:55:52;17.13;;;6.57;;
5175;SDS011;2607;50.934;6.934;2022-10-19T07:58:18;8.27;;;5.80;;
5175;SDS011;2607;50.934;6.934;2022-10-19T08:00:44;11.33;;;6.00;;
5175;SDS011;2607;50.934;6.934;2022-10-19T08:03:09;6.47;;;5.17;;
5175;SDS011;2607;50.934;6.934;2022-10-19T08:05:35;7.27;;;5.70;;
5175;SDS011;2607;50.934;6.934;2022-10-19T08:08:01;5.97;;;5.30;;
5175;SDS011;2607;50.934;6.934;2022-10-19T08:10:27;8.27;;;5.20;;
5175;SDS011;2607;50.934;6.934;2022-10-19T08:12:53;8.27;;;5.50;;
5175;SDS011;2607;50.934;6.934;2022-10-19T08:15:18;10.70;;;5.20;;
5175;SDS011;2607;50.934;6.934;2022-10-19T08:17:44;9.80;;;5.50;;
5175;SDS011;2607;50.934;6.934;2022-10-19T08:20:09;8.63;;;4.80;;
5175;SDS011;2607;50.934;6.934;2022-10-19T08:22:35;7.53;;;4.90;;
5175;SDS011;2607;50.934;6.934;2022-10-19T08:25:01;13.63;;;7.47;;
5175;SDS011;2607;50.934;6.934;2022-10-19T08:27:26;11.37;;;5.90;;
5175;SDS011;2607;50.934;6.934;2022-10-19T08:29:53;7.57;;;6.00;;
5175;SDS011;2607;50.934;6.934;2022-10-19T08:32:19;9.13;;;5.10;;
5175;SDS011;2607;50.934;6.934;2022-10-19T08:34:44;6.80;;;4.77;;
5175;SDS011;2607;50.934;6.934;2022-10-19T08:37:10;8.03;;;5.50;;
5175;SDS011;2607;50.934;6.934;2022-10-19T08:39:35;11.87;;;8.20;;
5175;SDS011;2607;50.934;6.934;2022-10-19T08:42:02;6.30;;;4.97;;
5175;SDS011;2607;50.934;6.934;2022-10-19T08:50:37;15.47;;;6.63;;
5175;SDS011;2607;50.934;6.934;2022-10-19T08:53:11;16.83;;;6.60;;
5175;SDS011;2607;50.934;6.934;2022-10-19T08:55:48;9.10;;;6.10;;
5175;SDS011;2607;50.934;6.934;2022-10-19T09:09:15;16.13;;;6.00;;
5175;SDS011;2607;50.934;6.934;2022-10-19T09:11:48;11.00;;;5.30;;
5175;SDS011;2607;50.934;6.934;2022-10-19T09:14:21;8.00;;;5.40;;
5175;SDS011;2607;50.934;6.934;2022-10-19T09:16:51;9.00;;;5.03;;
5175;SDS011;2607;50.934;6.934;2022-10-19T09:19:21;7.13;;;5.90;;
5175;SDS011;2607;50.934;6.934;2022-10-19T09:24:48;11.27;;;5.67;;
5175;SDS011;2607;50.934;6.934;2022-10-19T09:27:23;9.93;;;5.83;;
5175;SDS011;2607;50.934;6.934;2022-10-19T09:29:54;11.57;;;6.90;;
5175;SDS011;2607;50.934;6.934;2022-10-19T09:32:25;6.23;;;4.93;;
5175;SDS011;2607;50.934;6.934;2022-10-19T09:34:53;6.23;;;5.00;;
5175;SDS011;2607;50.934;6.934;2022-10-19T09:37:26;5.33;;;4.57;;
5175;SDS011;2607;50.934;6.934;2022-10-19T09:39:52;8.33;;;4.97;;
5175;SDS011;2607;50.934;6.934;2022-10-19T09:42:20;5.63;;;5.20;;
5175;SDS011;2607;50.934;6.934;2022-10-19T09:44:48;5.60;;;4.63;;
5175;SDS011;2607;50.934;6.934;2022-10-19T09:47:27;6.07;;;5.47;;
5175;SDS011;2607;50.934;6.934;2022-10-19T09:55:27;9.77;;;5.70;;
5175;SDS011;2607;50.934;6.934;2022-10-19T10:00:38;10.60;;;5.77;;
5175;SDS011;2607;50.934;6.934;2022-10-19T10:05:46;20.13;;;8.83;;
5175;SDS011;2607;50.934;6.934;2022-10-19T10:08:20;17.03;;;7.63;;
5175;SDS011;2607;50.934;6.934;2022-10-19T10:11:03;8.57;;;5.27;;
5175;SDS011;2607;50.934;6.934;2022-10-19T10:13:34;10.10;;;5.47;;
5175;SDS011;2607;50.934;6.934;2022-10-19T10:16:02;12.20;;;5.40;;
5175;SDS011;2607;50.934;6.934;2022-10-19T10:18:31;9.30;;;4.90;;
5175;SDS011;2607;50.934;6.934;2022-10-19T10:21:03;5.33;;;4.37;;
5175;SDS011;2607;50.934;6.934;2022-10-19T10:23:37;6.90;;;5.27;;
5175;SDS011;2607;50.934;6.934;2022-10-19T10:26:03;9.73;;;4.63;;
5175;SDS011;2607;50.934;6.934;2022-10-19T10:28:38;9.63;;;4.93;;
5175;SDS011;2607;50.934;6.934;2022-10-19T10:31:11;5.33;;;4.80;;
5175;SDS011;2607;50.934;6.934;2022-10-19T10:33:37;5.37;;;4.87;;
5175;SDS011;2607;50.934;6.934;2022-10-19T10:36:04;9.20;;;5.07;;
5175;SDS011;2607;50.934;6.934;2022-10-19T10:38:46;5.60;;;5.10;;
5175;SDS011;2607;50.934;6.934;2022-10-19T10:41:16;14.13;;;5.40;;
5175;SDS011;2607;50.934;6.934;2022-10-19T10:46:21;10.13;;;7.70;;
5175;SDS011;2607;50.934;6.934;2022-10-19T10:48:56;11.70;;;7.60;;
5175;SDS011;2607;50.934;6.934;2022-10-19T10:54:05;12.47;;;8.27;;
5175;SDS011;2607;50.934;6.934;2022-10-19T10:56:38;10.17;;;6.77;;
5175;SDS011;2607;50.934;6.934;2022-10-19T10:59:17;10.90;;;5.70;;
5175;SDS011;2607;50.934;6.934;2022-10-19T11:04:53;10.73;;;6.33;;
5175;SDS011;2607;50.934;6.934;2022-10-19T11:07:23;13.63;;;7.10;;
5175;SDS011;2607;50.934;6.934;2022-10-19T11:09:58;8.93;;;6.27;;
5175;SDS011;2607;50.934;6.934;2022-10-19T11:12:32;10.50;;;6.27;;
5175;SDS011;2607;50.934;6.934;2022-10-19T11:15:05;11.20;;;5.90;;
5175;SDS011;2607;50.934;6.934;2022-10-19T11:17:40;8.53;;;5.87;;
5175;SDS011;2607;50.934;6.934;2022-10-19T11:20:15;9.80;;;5.33;;
5175;SDS011;2607;50.934;6.934;2022-10-19T11:22:43;10.50;;;5.37;;
5175;SDS011;2607;50.934;6.934;2022-10-19T11:25:21;6.17;;;4.80;;
5175;SDS011;2607;50.934;6.934;2022-10-19T11:28:01;12.90;;;5.00;;
5175;SDS011;2607;50.934;6.934;2022-10-19T11:30:28;8.63;;;4.07;;
5175;SDS011;2607;50.934;6.934;2022-10-19T11:33:17;6.30;;;4.50;;
5175;SDS011;2607;50.934;6.934;2022-10-19T11:42:01;6.67;;;4.60;;
5175;SDS011;2607;50.934;6.934;2022-10-19T11:53:29;9.70;;;4.77;;
5175;SDS011;2607;50.934;6.934;2022-10-19T11:56:27;7.40;;;5.10;;
5175;SDS011;2607;50.934;6.934;2022-10-19T11:59:27;9.23;;;5.03;;
5175;SDS011;2607;50.934;6.934;2022-10-19T12:05:20;18.50;;;5.07;;
5175;SDS011;2607;50.934;6.934;2022-10-19T12:08:20;7.10;;;4.90;;
5175;SDS011;2607;50.934;6.934;2022-10-19T12:13:20;7.10;;;4.50;;
5175;SDS011;2607;50.934;6.934;2022-10-19T12:15:52;6.60;;;4.50;;
5175;SDS011;2607;50.934;6.934;2022-10-19T12:21:08;6.73;;;5.23;;
5175;SDS011;2607;50.934;6.934;2022-10-19T12:23:42;6.67;;;4.20;;
5175;SDS011;2607;50.934;6.934;2022-10-19T12:26:14;5.70;;;3.70;;
5175;SDS011;2607;50.934;6.934;2022-10-19T12:28:42;5.70;;;3.77;;
5175;SDS011;2607;50.934;6.934;2022-10-19T12:31:22;5.33;;;3.90;;
5175;SDS011;2607;50.934;6.934;2022-10-19T12:36:50;6.27;;;4.30;;
5175;SDS011;2607;50.934;6.934;2022-10-19T12:39:51;6.90;;;3.93;;
5175;SDS011;2607;50.934;6.934;2022-10-19T12:42:27;4.03;;;3.30;;
5175;SDS011;2607;50.934;6.934;2022-10-19T12:44:56;5.97;;;3.70;;
5175;SDS011;2607;50.934;6.934;2022-10-19T12:47:29;4.10;;;3.70;;
5175;SDS011;2607;50.934;6.934;2022-10-19T12:49:55;4.80;;;3.50;;
5175;SDS011;2607;50.934;6.934;2022-10-19T12:57:36;6.30;;;3.23;;
5175;SDS011;2607;50.934;6.934;2022-10-19T13:00:04;6.37;;;3.03;;
5175;SDS011;2607;50.934;6.934;2022-10-19T13:02:44;5.67;;;4.33;;
5175;SDS011;2607;50.934;6.934;2022-10-19T13:05:18;10.70;;;4.57;;
5175;SDS011;2607;50.934;6.934;2022-10-19T13:07:46;6.50;;;3.13;;
5175;SDS011;2607;50.934;6.934;2022-10-19T13:10:20;6.23;;;3.90;;
5175;SDS011;2607;50.934;6.934;2022-10-19T13:12:48;8.77;;;4.20;;
5175;SDS011;2607;50.934;6.934;2022-10-19T13:18:01;3.93;;;3.63;;
5175;SDS011;2607;50.934;6.934;2022-10-19T13:20:40;8.47;;;3.87;;
5175;SDS011;2607;50.934;6.934;2022-10-19T13:25:39;13.53;;;5.67;;
5175;SDS011;2607;50.934;6.934;2022-10-19T13:35:48;6.93;;;4.10;;
5175;SDS011;2607;50.934;6.934;2022-10-19T13:57:09;10.47;;;4.37;;
5175;SDS011;2607;50.934;6.934;2022-10-19T14:10:48;4.57;;;3.60;;
5175;SDS011;2607;50.934;6.934;2022-10-19T14:13:23;5.60;;;3.33;;
5175;SDS011;2607;50.934;6.934;2022-10-19T14:15:52;7.13;;;5.17;;
5175;SDS011;2607;50.934;6.934;2022-10-19T14:18:23;8.47;;;4.93;;
5175;SDS011;2607;50.934;6.934;2022-10-19T14:21:03;6.50;;;5.20;;
5175;SDS011;2607;50.934;6.934;2022-10-19T14:23:34;12.20;;;4.87;;
5175;SDS011;2607;50.934;6.934;2022-10-19T14:28:40;10.83;;;3.33;;
5175;SDS011;2607;50.934;6.934;2022-10-19T14:31:11;4.00;;;3.13;;
5175;SDS011;2607;50.934;6.934;2022-10-19T14:33:48;6.60;;;3.33;;
5175;SDS011;2607;50.934;6.934;2022-10-19T14:36:19;6.30;;;3.63;;
5175;SDS011;2607;50.934;6.934;2022-10-19T14:38:48;3.07;;;2.80;;
5175;SDS011;2607;50.934;6.934;2022-10-19T14:41:27;8.97;;;3.70;;
5175;SDS011;2607;50.934;6.934;2022-10-19T14:43:59;7.03;;;5.07;;
5175;SDS011;2607;50.934;6.934;2022-10-19T14:46:30;11.50;;;5.23;;
5175;SDS011;2607;50.934;6.934;2022-10-19T14:48:58;9.50;;;5.53;;
5175;SDS011;2607;50.934;6.934;2022-10-19T14:51:48;6.20;;;4.87;;
5175;SDS011;2607;50.934;6.934;2022-10-19T14:54:19;5.80;;;4.00;;
5175;SDS011;2607;50.934;6.934;2022-10-19T14:57:00;6.63;;;3.60;;
5175;SDS011;2607;50.934;6.934;2022-10-19T14:59:43;6.70;;;4.30;;
5175;SDS011;2607;50.934;6.934;2022-10-19T15:02:37;7.33;;;4.63;;
5175;SDS011;2607;50.934;6.934;2022-10-19T15:05:18;10.00;;;4.50;;
5175;SDS011;2607;50.934;6.934;2022-10-19T15:07:46;4.30;;;3.97;;
5175;SDS011;2607;50.934;6.934;2022-10-19T15:12:47;5.67;;;3.63;;
5175;SDS011;2607;50.934;6.934;2022-10-19T15:15:27;7.30;;;4.90;;
5175;SDS011;2607;50.934;6.934;2022-10-19T15:18:04;4.47;;;3.93;;
5175;SDS011;2607;50.934;6.934;2022-10-19T15:20:31;4.00;;;3.57;;
5175;SDS011;2607;50.934;6.934;2022-10-19T15:26:16;11.00;;;3.50;;
5175;SDS011;2607;50.934;6.934;2022-10-19T15:28:42;4.53;;;3.90;;
5175;SDS011;2607;50.934;6.934;2022-10-19T15:31:13;4.93;;;3.40;;
5175;SDS011;2607;50.934;6.934;2022-10-19T15:33:50;4.50;;;4.10;;
5175;SDS011;2607;50.934;6.934;2022-10-19T15:36:16;4.80;;;4.23;;
5175;SDS011;2607;50.934;6.934;2022-10-19T15:41:42;6.17;;;3.83;;
5175;SDS011;2607;50.934;6.934;2022-10-19T15:52:20;5.27;;;3.73;;
5175;SDS011;2607;50.934;6.934;2022-10-19T15:54:48;7.20;;;4.13;;
5175;SDS011;2607;50.934;6.934;2022-10-19T15:59:49;9.80;;;3.80;;
5175;SDS011;2607;50.934;6.934;2022-10-19T16:02:15;4.00;;;3.67;;
5175;SDS011;2607;50.934;6.934;2022-10-19T16:04:40;3.60;;;3.00;;
5175;SDS011;2607;50.934;6.934;2022-10-19T16:07:07;12.47;;;9.20;;
5175;SDS011;2607;50.934;6.934;2022-10-19T16:09:38;5.33;;;4.00;;
5175;SDS011;2607;50.934;6.934;2022-10-19T16:12:04;9.70;;;6.10;;
5175;SDS011;2607;50.934;6.934;2022-10-19T16:14:29;10.07;;;4.20;;
5175;SDS011;2607;50.934;6.934;2022-10-19T16:16:55;11.00;;;6.20;;
5175;SDS011;2607;50.934;6.934;2022-10-19T16:19:20;7.10;;;4.30;;
5175;SDS011;2607;50.934;6.934;2022-10-19T16:21:46;12.73;;;5.20;;
5175;SDS011;2607;50.934;6.934;2022-10-19T16:24:11;4.10;;;3.80;;
5175;SDS011;2607;50.934;6.934;2022-10-19T16:26:37;7.97;;;6.90;;
5175;SDS011;2607;50.934;6.934;2022-10-19T16:29:02;13.03;;;5.63;;
5175;SDS011;2607;50.934;6.934;2022-10-19T16:31:28;9.63;;;6.60;;
5175;SDS011;2607;50.934;6.934;2022-10-19T16:33:55;9.47;;;6.70;;
5175;SDS011;2607;50.934;6.934;2022-10-19T16:36:20;13.47;;;7.97;;
5175;SDS011;2607;50.934;6.934;2022-10-19T16:38:46;5.10;;;4.20;;
5175;SDS011;2607;50.934;6.934;2022-10-19T16:41:12;4.90;;;4.40;;
5175;SDS011;2607;50.934;6.934;2022-10-19T16:43:38;6.23;;;4.00;;
5175;SDS011;2607;50.934;6.934;2022-10-19T16:46:04;4.67;;;3.97;;
5175;SDS011;2607;50.934;6.934;2022-10-19T16:48:30;6.97;;;4.60;;
5175;SDS011;2607;50.934;6.934;2022-10-19T16:53:30;14.37;;;8.40;;
5175;SDS011;2607;50.934;6.934;2022-10-19T16:56:04;6.10;;;3.87;;
5175;SDS011;2607;50.934;6.934;2022-10-19T16:58:31;7.33;;;3.80;;
5175;SDS011;2607;50.934;6.934;2022-10-19T17:00:56;5.70;;;4.37;;
5175;SDS011;2607;50.934;6.934;2022-10-19T17:03:25;8.63;;;5.23;;
5175;SDS011;2607;50.934;6.934;2022-10-19T17:05:52;4.53;;;4.03;;
5175;SDS011;2607;50.934;6.934;2022-10-19T17:08:18;4.40;;;3.40;;
5175;SDS011;2607;50.934;6.934;2022-10-19T17:10:43;9.40;;;4.40;;
5175;SDS011;2607;50.934;6.934;2022-10-19T17:13:09;7.20;;;4.13;;
5175;SDS011;2607;50.934;6.934;2022-10-19T17:15:34;9.53;;;6.40;;
5175;SDS011;2607;50.934;6.934;2022-10-19T17:18:01;11.30;;;3.90;;
5175;SDS011;2607;50.934;6.934;2022-10-19T17:20:27;6.93;;;3.90;;
5175;SDS011;2607;50.934;6.934;2022-10-19T17:22:52;8.90;;;5.60;;
5175;SDS011;2607;50.934;6.934;2022-10-19T17:25:18;7.23;;;6.30;;
5175;SDS011;2607;50.934;6.934;2022-10-19T17:27:44;10.23;;;7.20;;
5175;SDS011;2607;50.934;6.934;2022-10-19T17:30:14;14.37;;;8.57;;
5175;SDS011;2607;50.934;6.934;2022-10-19T17:32:40;11.20;;;6.30;;
5175;SDS011;2607;50.934;6.934;2022-10-19T17:35:05;11.27;;;7.40;;
5175;SDS011;2607;50.934;6.934;2022-10-19T17:37:31;10.70;;;6.33;;
5175;SDS011;2607;50.934;6.934;2022-10-19T17:39:57;13.23;;;5.70;;
5175;SDS011;2607;50.934;6.934;2022-10-19T17:42:22;12.87;;;6.17;;
5175;SDS011;2607;50.934;6.934;2022-10-19T17:44:48;12.83;;;5.00;;
5175;SDS011;2607;50.934;6.934;2022-10-19T17:47:14;6.07;;;5.40;;
5175;SDS011;2607;50.934;6.934;2022-10-19T17:49:39;8.03;;;4.90;;
5175;SDS011;2607;50.934;6.934;2022-10-19T17:52:05;10.83;;;5.63;;
5175;SDS011;2607;50.934;6.934;2022-10-19T17:54:30;8.30;;;6.33;;
5175;SDS011;2607;50.934;6.934;2022-10-19T17:56:56;9.00;;;5.33;;
5175;SDS011;2607;50.934;6.934;2022-10-19T17:59:21;22.27;;;6.63;;